createdAt,value
2022-08-03T00:01:25.423Z,2.03
2022-08-03T00:03:51.965Z,1.95
2022-08-03T00:06:18.481Z,2.38
2022-08-03T00:08:45.105Z,1.83
2022-08-03T00:11:11.836Z,2.00
2022-08-03T00:13:38.409Z,1.80
2022-08-03T00:16:05.482Z,1.83
2022-08-03T00:18:32.155Z,1.70
2022-08-03T00:20:58.659Z,1.70
2022-08-03T00:23:25.263Z,1.95
2022-08-03T00:25:52.099Z,2.20
2022-08-03T00:28:18.635Z,1.98
2022-08-03T00:30:45.272Z,1.45
2022-08-03T00:33:12.019Z,1.83
2022-08-03T00:35:50.601Z,1.58
2022-08-03T00:38:18.336Z,2.17
2022-08-03T00:40:44.980Z,2.15
2022-08-03T00:43:11.661Z,1.92
2022-08-03T00:45:41.368Z,1.70
2022-08-03T00:48:30.155Z,2.05
2022-08-03T00:50:56.966Z,2.05
2022-08-03T00:53:24.426Z,1.70
2022-08-03T00:55:51.288Z,2.03
2022-08-03T00:58:17.843Z,1.52
2022-08-03T01:00:44.385Z,1.90
2022-08-03T01:03:12.028Z,2.47
2022-08-03T01:05:52.665Z,2.00
2022-08-03T01:08:19.122Z,1.73
2022-08-03T01:10:54.563Z,1.70
2022-08-03T01:14:04.677Z,2.17
2022-08-03T01:16:37.239Z,1.85
2022-08-03T01:19:06.655Z,1.83
2022-08-03T01:21:52.352Z,2.03
2022-08-03T01:24:46.837Z,1.92
2022-08-03T01:27:31.306Z,1.98
2022-08-03T01:30:05.248Z,2.60
2022-08-03T01:33:01.643Z,1.67
2022-08-03T01:36:13.240Z,2.22
2022-08-03T01:38:47.650Z,2.15
2022-08-03T01:41:20.160Z,2.20
2022-08-03T01:44:28.448Z,1.92
2022-08-03T01:46:38.438Z,1.70
2022-08-03T01:49:09.376Z,2.03
2022-08-03T01:52:02.681Z,1.83
2022-08-03T01:54:27.118Z,2.20
2022-08-03T01:56:56.749Z,2.15
2022-08-03T01:59:26.410Z,2.08
2022-08-03T02:02:29.142Z,2.22
2022-08-03T02:04:43.723Z,2.10
2022-08-03T02:07:11.403Z,2.13
2022-08-03T02:09:40.169Z,2.47
2022-08-03T02:12:11.410Z,1.83
2022-08-03T02:14:40.887Z,2.00
2022-08-03T02:17:08.252Z,2.10
2022-08-03T02:19:36.336Z,2.20
2022-08-03T02:22:05.112Z,1.95
2022-08-03T02:24:32.091Z,2.22
2022-08-03T02:27:00.250Z,2.45
2022-08-03T02:29:39.384Z,2.55
2022-08-03T02:32:12.512Z,2.67
2022-08-03T02:34:42.403Z,2.40
2022-08-03T02:37:12.107Z,2.30
2022-08-03T02:39:42.878Z,2.40
2022-08-03T02:42:12.727Z,2.58
2022-08-03T02:44:43.746Z,2.40
2022-08-03T02:47:12.568Z,2.55
2022-08-03T02:49:51.619Z,2.38
2022-08-03T02:52:21.361Z,2.35
2022-08-03T02:54:51.196Z,1.98
2022-08-03T02:57:19.974Z,2.00
2022-08-03T02:59:47.642Z,2.10
2022-08-03T03:02:16.422Z,2.03
2022-08-03T03:04:59.737Z,1.95
2022-08-03T03:07:34.642Z,2.15
2022-08-03T03:10:19.353Z,2.40
2022-08-03T03:12:47.409Z,2.00
2022-08-03T03:15:14.130Z,2.35
2022-08-03T03:17:43.178Z,2.28
2022-08-03T03:20:10.715Z,2.30
2022-08-03T03:22:38.857Z,2.33
2022-08-03T03:25:07.436Z,2.65
2022-08-03T03:27:34.645Z,2.40
2022-08-03T03:30:02.565Z,2.47
2022-08-03T03:32:29.649Z,2.22
2022-08-03T03:34:59.255Z,2.28
2022-08-03T03:37:29.197Z,2.35
2022-08-03T03:39:56.294Z,2.50
2022-08-03T03:42:23.438Z,2.00
2022-08-03T03:44:50.159Z,2.28
2022-08-03T03:47:17.253Z,2.42
2022-08-03T03:49:59.524Z,2.35
2022-08-03T03:52:26.018Z,2.17
2022-08-03T03:54:53.799Z,2.47
2022-08-03T03:57:22.011Z,2.10
2022-08-03T03:59:49.072Z,2.28
2022-08-03T04:02:15.930Z,2.33
2022-08-03T04:05:01.483Z,2.85
2022-08-03T04:07:47.093Z,2.53
2022-08-03T04:10:39.840Z,2.55
2022-08-03T04:13:12.388Z,2.38
2022-08-03T04:15:40.103Z,2.50
2022-08-03T04:18:09.986Z,2.38
2022-08-03T04:20:38.783Z,2.88
2022-08-03T04:23:15.537Z,2.63
2022-08-03T04:25:43.909Z,2.55
2022-08-03T04:28:30.486Z,2.25
2022-08-03T04:30:59.822Z,2.70
2022-08-03T04:33:30.312Z,2.42
2022-08-03T04:36:02.630Z,2.55
2022-08-03T04:38:32.878Z,2.70
2022-08-03T04:41:01.165Z,2.92
2022-08-03T04:43:28.375Z,2.55
2022-08-03T04:45:56.069Z,2.63
2022-08-03T04:48:22.859Z,2.42
2022-08-03T04:50:49.536Z,1.88
2022-08-03T04:53:18.025Z,2.33
2022-08-03T04:55:44.777Z,2.15
2022-08-03T04:58:12.598Z,1.83
2022-08-03T05:00:39.353Z,2.20
2022-08-03T05:03:23.885Z,1.40
2022-08-03T05:06:02.019Z,1.90
2022-08-03T05:08:41.191Z,1.73
2022-08-03T05:11:13.324Z,1.48
2022-08-03T05:13:39.815Z,1.90
2022-08-03T05:16:06.326Z,1.95
2022-08-03T05:18:32.904Z,2.20
2022-08-03T05:20:59.456Z,2.00
2022-08-03T05:23:26.011Z,1.90
2022-08-03T05:25:52.503Z,2.13
2022-08-03T05:28:19.118Z,2.08
2022-08-03T05:30:45.636Z,2.35
2022-08-03T05:36:01.089Z,1.83
2022-08-03T05:38:28.508Z,1.90
2022-08-03T05:41:21.021Z,2.25
2022-08-03T05:43:46.688Z,2.08
2022-08-03T05:46:13.417Z,2.00
2022-08-03T05:48:40.489Z,2.10
2022-08-03T05:51:11.052Z,2.20
2022-08-03T05:53:38.358Z,2.35
2022-08-03T05:56:13.997Z,2.20
2022-08-03T05:58:46.958Z,2.20
2022-08-03T06:01:14.874Z,2.40
2022-08-03T06:03:41.505Z,2.30
2022-08-03T06:06:08.481Z,2.28
2022-08-03T06:08:35.431Z,2.10
2022-08-03T06:11:02.079Z,2.88
2022-08-03T06:13:28.825Z,2.83
2022-08-03T06:15:55.395Z,2.33
2022-08-03T06:18:21.955Z,3.15
2022-08-03T06:20:49.464Z,2.67
2022-08-03T06:23:17.968Z,2.75
2022-08-03T06:25:45.287Z,2.65
2022-08-03T06:28:35.228Z,3.13
2022-08-03T06:31:01.016Z,2.80
2022-08-03T06:34:31.218Z,3.00
2022-08-03T06:36:14.384Z,2.75
2022-08-03T06:38:40.901Z,3.08
2022-08-03T06:41:07.444Z,3.00
2022-08-03T06:43:37.620Z,3.20
2022-08-03T06:46:06.047Z,3.72
2022-08-03T06:48:32.753Z,4.07
2022-08-03T06:50:59.477Z,3.60
2022-08-03T06:53:26.126Z,3.70
2022-08-03T06:55:55.023Z,3.80
2022-08-03T06:58:22.194Z,3.92
2022-08-03T07:00:50.924Z,3.83
2022-08-03T07:03:17.599Z,3.90
2022-08-03T07:05:46.578Z,4.18
2022-08-03T07:08:14.011Z,4.25
2022-08-03T07:10:40.507Z,4.15
2022-08-03T07:13:07.429Z,3.97
2022-08-03T07:15:54.247Z,4.22
2022-08-03T07:18:27.608Z,4.43
2022-08-03T07:20:56.422Z,4.03
2022-08-03T07:23:22.959Z,4.65
2022-08-03T07:25:50.759Z,4.45
2022-08-03T07:30:42.827Z,4.72
2022-08-03T07:33:09.382Z,4.68
2022-08-03T07:35:35.905Z,5.05
2022-08-03T07:40:31.507Z,5.43
2022-08-03T07:42:58.741Z,4.88
2022-08-03T07:45:26.860Z,5.35
2022-08-03T07:47:54.503Z,4.88
2022-08-03T07:50:21.889Z,5.20
2022-08-03T07:52:49.566Z,5.50
2022-08-03T07:55:18.082Z,5.90
2022-08-03T07:57:44.719Z,5.00
2022-08-03T08:00:19.262Z,5.30
2022-08-03T08:02:46.194Z,5.00
2022-08-03T08:05:13.220Z,5.50
2022-08-03T08:07:40.150Z,6.28
2022-08-03T08:10:10.116Z,5.40
2022-08-03T08:12:37.861Z,5.68
2022-08-03T08:15:05.246Z,5.35
2022-08-03T08:17:31.884Z,5.85
2022-08-03T08:19:58.421Z,5.47
2022-08-03T08:22:29.850Z,5.60
2022-08-03T08:24:56.832Z,5.88
2022-08-03T08:27:23.650Z,5.38
2022-08-03T08:29:52.678Z,5.90
2022-08-03T08:32:23.646Z,5.85
2022-08-03T08:34:53.279Z,5.70
2022-08-03T08:37:19.775Z,6.15
2022-08-03T08:39:46.295Z,6.50
2022-08-03T08:42:12.955Z,6.22
2022-08-03T08:44:39.825Z,6.22
2022-08-03T08:47:08.308Z,5.70
2022-08-03T08:49:38.794Z,6.18
2022-08-03T08:52:25.452Z,5.95
2022-08-03T08:55:00.147Z,6.00
2022-08-03T08:57:42.890Z,6.15
2022-08-03T09:00:14.050Z,6.07
2022-08-03T09:02:44.817Z,6.45
2022-08-03T09:05:13.650Z,6.25
2022-08-03T09:07:44.709Z,8.50
2022-08-03T09:10:13.998Z,9.30
2022-08-03T09:12:46.156Z,8.97
2022-08-03T09:15:31.282Z,8.52
2022-08-03T09:18:00.130Z,7.65
2022-08-03T09:20:29.003Z,7.57
2022-08-03T09:22:59.688Z,7.15
2022-08-03T09:25:34.222Z,7.05
2022-08-03T09:28:11.035Z,6.63
2022-08-03T09:30:40.545Z,6.53
2022-08-03T09:33:09.884Z,6.70
2022-08-03T09:35:53.641Z,6.23
2022-08-03T09:38:28.562Z,6.43
2022-08-03T09:41:00.115Z,6.63
2022-08-03T09:43:27.681Z,6.45
2022-08-03T09:46:04.111Z,6.90
2022-08-03T09:48:31.789Z,7.10
2022-08-03T09:51:32.312Z,8.15
2022-08-03T09:53:58.991Z,7.95
2022-08-03T09:56:45.224Z,7.60
2022-08-03T09:59:13.874Z,8.32
2022-08-03T10:01:42.015Z,7.75
2022-08-03T10:04:17.181Z,7.28
2022-08-03T10:09:28.183Z,6.72
2022-08-03T10:11:55.254Z,6.47
2022-08-03T10:14:23.401Z,6.57
2022-08-03T10:16:50.232Z,6.30
2022-08-03T10:19:17.486Z,6.00
2022-08-03T10:21:51.145Z,6.43
2022-08-03T10:24:24.269Z,6.05
2022-08-03T10:29:25.183Z,5.38
2022-08-03T10:31:58.019Z,5.82
2022-08-03T10:34:27.567Z,5.53
2022-08-03T10:39:28.750Z,5.10
2022-08-03T10:41:58.697Z,5.68
2022-08-03T10:44:32.598Z,5.30
2022-08-03T10:46:59.573Z,4.63
2022-08-03T10:49:33.867Z,5.05
2022-08-03T10:52:13.852Z,4.88
2022-08-03T10:55:10.180Z,4.72
2022-08-03T10:57:49.921Z,4.82
2022-08-03T11:00:21.670Z,4.78
2022-08-03T11:03:08.710Z,4.30
2022-08-03T11:05:38.177Z,4.28
2022-08-03T11:10:46.750Z,4.53
2022-08-03T11:13:18.229Z,4.45
2022-08-03T11:15:47.824Z,4.13
2022-08-03T11:18:15.345Z,5.07
2022-08-03T11:20:46.066Z,4.15
2022-08-03T11:23:12.985Z,4.25
2022-08-03T11:26:18.731Z,4.22
2022-08-03T11:28:47.504Z,3.85
2022-08-03T11:31:48.170Z,4.13
2022-08-03T11:34:10.873Z,4.03
2022-08-03T11:37:15.223Z,3.72
2022-08-03T11:39:47.461Z,3.85
2022-08-03T11:42:23.159Z,3.55
2022-08-03T11:45:00.363Z,3.35
2022-08-03T11:47:29.669Z,3.67
2022-08-03T11:50:00.223Z,3.40
2022-08-03T11:52:28.876Z,3.20
2022-08-03T11:54:56.439Z,3.40
2022-08-03T11:59:16.499Z,3.10
2022-08-03T12:00:32.461Z,2.80
2022-08-03T12:03:06.415Z,3.03
2022-08-03T12:05:37.256Z,2.90
2022-08-03T12:10:30.021Z,2.58
2022-08-03T12:12:58.187Z,2.65
2022-08-03T12:15:29.989Z,2.17
2022-08-03T12:17:58.281Z,2.90
2022-08-03T12:23:04.582Z,2.40
2022-08-03T12:25:39.524Z,2.72
2022-08-03T12:28:37.021Z,2.47
2022-08-03T12:31:06.412Z,2.80
2022-08-03T12:34:00.414Z,2.60
2022-08-03T12:36:29.975Z,3.10
2022-08-03T12:38:59.147Z,2.55
2022-08-03T12:41:35.094Z,2.78
2022-08-03T12:44:04.008Z,2.47
2022-08-03T12:46:36.511Z,2.47
2022-08-03T12:49:19.452Z,3.40
2022-08-03T12:51:45.954Z,2.40
2022-08-03T12:54:24.778Z,2.42
2022-08-03T12:57:11.096Z,2.25
2022-08-03T12:59:52.641Z,2.42
2022-08-03T13:02:23.609Z,2.90
2022-08-03T13:04:52.396Z,2.40
2022-08-03T13:07:20.485Z,2.80
2022-08-03T13:09:53.179Z,2.50
2022-08-03T13:12:21.869Z,2.30
2022-08-03T13:14:51.094Z,2.30
2022-08-03T13:17:18.393Z,2.30
2022-08-03T13:19:46.304Z,2.00
2022-08-03T13:22:21.343Z,2.08
2022-08-03T13:24:50.402Z,2.20
2022-08-03T13:27:58.911Z,1.98
2022-08-03T13:30:04.832Z,2.38
2022-08-03T13:32:31.592Z,2.42
2022-08-03T13:34:58.279Z,1.70
2022-08-03T13:37:25.608Z,2.03
2022-08-03T13:39:58.727Z,1.60
2022-08-03T13:42:29.507Z,2.25
2022-08-03T13:44:56.102Z,1.80
2022-08-03T13:47:23.010Z,2.10
2022-08-03T13:49:59.982Z,2.05
2022-08-03T13:52:32.399Z,2.08
2022-08-03T13:54:59.043Z,1.60
2022-08-03T13:58:11.928Z,1.73
2022-08-03T14:00:12.712Z,1.45
2022-08-03T14:02:43.944Z,1.63
2022-08-03T14:05:10.578Z,1.65
2022-08-03T14:07:37.240Z,1.95
2022-08-03T14:12:29.401Z,1.60
2022-08-03T14:17:23.305Z,1.63
2022-08-03T14:19:52.789Z,1.50
2022-08-03T14:22:20.691Z,2.08
2022-08-03T14:24:47.216Z,1.50
2022-08-03T14:27:13.710Z,1.50
2022-08-03T14:29:40.223Z,1.45
2022-08-03T14:32:09.428Z,1.60
2022-08-03T14:34:38.854Z,1.55
2022-08-03T14:37:05.413Z,1.17
2022-08-03T14:39:58.301Z,1.33
2022-08-03T14:42:20.255Z,1.30
2022-08-03T14:44:47.215Z,1.45
2022-08-03T14:47:14.316Z,1.25
2022-08-03T14:50:33.510Z,1.30
2022-08-03T14:52:27.577Z,1.20
2022-08-03T14:54:54.141Z,1.67
2022-08-03T14:57:20.901Z,1.50
2022-08-03T14:59:59.762Z,1.30
2022-08-03T15:02:26.717Z,1.45
2022-08-03T15:04:53.257Z,1.58
2022-08-03T15:07:20.866Z,1.55
2022-08-03T15:09:47.764Z,1.40
2022-08-03T15:12:14.453Z,1.67
2022-08-03T15:14:41.008Z,1.92
2022-08-03T15:17:07.895Z,1.00
2022-08-03T15:20:00.383Z,1.40
2022-08-03T15:22:25.422Z,1.45
2022-08-03T15:26:31.914Z,1.40
2022-08-03T15:28:03.718Z,1.27
2022-08-03T15:30:31.449Z,1.27
2022-08-03T15:32:57.971Z,1.30
2022-08-03T15:37:50.159Z,1.20
2022-08-03T15:40:16.674Z,0.88
2022-08-03T15:42:43.164Z,1.25
2022-08-03T15:45:10.061Z,1.15
2022-08-03T15:47:36.655Z,1.20
2022-08-03T15:50:07.805Z,1.10
2022-08-03T15:52:36.089Z,0.93
2022-08-03T15:55:02.643Z,1.10
2022-08-03T15:57:29.190Z,1.08
2022-08-03T16:02:21.327Z,1.02
2022-08-03T16:04:47.864Z,1.20
2022-08-03T16:07:15.909Z,1.00
2022-08-03T16:12:14.548Z,1.00
2022-08-03T16:14:51.869Z,1.15
2022-08-03T16:17:20.640Z,1.13
2022-08-03T16:19:47.421Z,1.08
2022-08-03T16:22:14.558Z,1.10
2022-08-03T16:24:41.467Z,1.00
2022-08-03T16:27:36.787Z,0.77
2022-08-03T16:32:20.945Z,1.10
2022-08-03T16:34:48.253Z,1.10
2022-08-03T16:37:37.761Z,1.00
2022-08-03T16:40:02.599Z,1.00
2022-08-03T16:42:29.233Z,0.90
2022-08-03T16:44:55.763Z,1.10
2022-08-03T16:47:23.009Z,1.00
2022-08-03T16:49:53.743Z,1.10
2022-08-03T16:52:23.776Z,0.98
2022-08-03T16:54:53.544Z,0.90
2022-08-03T16:57:29.956Z,1.10
2022-08-03T17:00:33.720Z,1.05
2022-08-03T17:03:04.184Z,0.90
2022-08-03T17:05:43.828Z,0.90
2022-08-03T17:10:44.626Z,1.30
2022-08-03T17:13:21.453Z,1.08
2022-08-03T17:16:01.087Z,0.88
2022-08-03T17:18:35.024Z,1.00
2022-08-03T17:21:06.416Z,1.00
2022-08-03T17:23:50.363Z,1.00
2022-08-03T17:26:22.063Z,1.02
2022-08-03T17:28:57.418Z,1.10
2022-08-03T17:31:32.145Z,1.20
2022-08-03T17:34:01.613Z,0.95
2022-08-03T17:37:01.729Z,1.40
2022-08-03T17:39:19.333Z,1.23
2022-08-03T17:41:55.355Z,1.10
2022-08-03T17:44:31.065Z,1.02
2022-08-03T17:47:06.624Z,0.93
2022-08-03T17:49:40.032Z,1.00
2022-08-03T17:52:35.641Z,1.00
2022-08-03T17:55:50.637Z,1.00
2022-08-03T17:58:06.958Z,0.90
2022-08-03T18:00:56.269Z,0.90
2022-08-03T18:06:55.541Z,0.98
2022-08-03T18:10:04.424Z,1.17
2022-08-03T18:12:15.458Z,0.95
2022-08-03T18:14:57.587Z,0.90
2022-08-03T18:17:54.646Z,0.98
2022-08-03T18:20:34.438Z,0.90
2022-08-03T18:23:07.013Z,1.00
2022-08-03T18:25:45.263Z,1.00
2022-08-03T18:28:16.212Z,1.00
2022-08-03T18:34:16.630Z,1.00
2022-08-03T18:36:00.222Z,0.93
2022-08-03T18:38:27.809Z,1.35
2022-08-03T18:40:54.369Z,0.90
2022-08-03T18:43:22.538Z,1.08
2022-08-03T18:46:28.809Z,1.17
2022-08-03T18:49:16.611Z,1.00
2022-08-03T18:51:46.578Z,0.80
2022-08-03T18:54:51.032Z,1.00
2022-08-03T18:57:18.390Z,1.10
2022-08-03T19:02:34.237Z,1.27
2022-08-03T19:05:10.754Z,1.20
2022-08-03T19:07:41.703Z,1.13
2022-08-03T19:10:10.445Z,1.20
2022-08-03T19:12:52.104Z,1.23
2022-08-03T19:15:36.147Z,1.15
2022-08-03T19:18:08.821Z,1.60
2022-08-03T19:23:03.658Z,1.10
2022-08-03T19:25:35.342Z,1.23
2022-08-03T19:28:06.065Z,1.50
2022-08-03T19:33:13.741Z,1.40
2022-08-03T19:35:57.140Z,1.10
2022-08-03T19:40:52.946Z,1.05
2022-08-03T19:43:53.765Z,1.10
2022-08-03T19:46:31.074Z,1.10
2022-08-03T19:49:03.250Z,1.23
2022-08-03T19:51:58.371Z,1.20
2022-08-03T19:54:29.812Z,1.30
2022-08-03T19:59:49.974Z,1.20
2022-08-03T20:02:26.872Z,1.52
2022-08-03T20:04:59.829Z,1.45
2022-08-03T20:07:28.784Z,1.55
2022-08-03T20:09:57.106Z,1.80
2022-08-03T20:12:28.290Z,1.70
2022-08-03T20:14:58.600Z,1.60
2022-08-03T20:17:54.970Z,1.90
2022-08-03T20:20:13.606Z,1.50
2022-08-03T20:22:46.227Z,1.70
2022-08-03T20:25:16.295Z,1.70
2022-08-03T20:28:08.067Z,1.40
2022-08-03T20:30:39.590Z,1.50
2022-08-03T20:33:09.919Z,1.30
2022-08-03T20:35:36.460Z,1.70
2022-08-03T20:38:03.266Z,1.45
2022-08-03T20:40:29.833Z,1.42
2022-08-03T20:42:57.255Z,2.00
2022-08-03T20:46:01.009Z,1.48
2022-08-03T20:48:10.753Z,1.50
2022-08-03T20:50:40.723Z,1.52
2022-08-03T20:53:12.002Z,1.30
2022-08-03T20:55:47.141Z,1.50
2022-08-03T20:58:17.841Z,1.05
2022-08-03T21:00:46.781Z,1.60
2022-08-03T21:03:18.737Z,1.42
2022-08-03T21:05:51.679Z,1.55
2022-08-03T21:08:22.562Z,1.60
2022-08-03T21:10:52.596Z,1.40
2022-08-03T21:16:28.998Z,1.60
2022-08-03T21:21:30.654Z,1.60
2022-08-03T21:23:59.280Z,1.20
2022-08-03T21:26:26.900Z,1.50
2022-08-03T21:28:56.210Z,1.52
2022-08-03T21:31:25.617Z,1.50
2022-08-03T21:34:04.244Z,1.40
2022-08-03T21:36:36.030Z,1.42
2022-08-03T21:39:06.039Z,1.77
2022-08-03T21:44:00.713Z,1.40
2022-08-03T21:46:33.985Z,1.55
2022-08-03T21:50:06.038Z,1.70
2022-08-03T21:51:59.834Z,1.40
2022-08-03T21:54:35.539Z,1.70
2022-08-03T21:57:19.206Z,1.75
2022-08-03T21:59:54.122Z,1.55
2022-08-03T22:02:34.464Z,1.30
2022-08-03T22:05:05.097Z,1.60
2022-08-03T22:07:33.822Z,1.40
2022-08-03T22:12:42.985Z,1.63
2022-08-03T22:15:12.376Z,1.30
2022-08-03T22:17:55.709Z,1.73
2022-08-03T22:20:23.258Z,1.50
2022-08-03T22:22:55.744Z,1.50
2022-08-03T22:25:28.709Z,1.70
2022-08-03T22:27:56.666Z,1.70
2022-08-03T22:30:23.442Z,1.80
2022-08-03T22:32:53.169Z,2.05
2022-08-03T22:35:21.327Z,1.63
2022-08-03T22:37:53.847Z,1.70
2022-08-03T22:40:20.567Z,1.80
2022-08-03T22:42:50.530Z,1.60
2022-08-03T22:46:06.169Z,1.70
2022-08-03T22:48:07.969Z,1.52
2022-08-03T22:50:34.845Z,1.63
2022-08-03T22:53:01.524Z,1.70
2022-08-03T22:55:28.292Z,1.70
2022-08-03T22:57:55.995Z,1.88
2022-08-03T23:00:23.904Z,2.00
2022-08-03T23:02:51.602Z,1.70
2022-08-03T23:06:02.460Z,1.70
2022-08-03T23:08:14.696Z,1.67
2022-08-03T23:10:46.851Z,1.77
2022-08-03T23:13:17.498Z,1.73
2022-08-03T23:15:51.160Z,1.40
2022-08-03T23:18:20.205Z,1.70
2022-08-03T23:20:52.754Z,1.77
2022-08-03T23:23:20.735Z,1.70
2022-08-03T23:25:50.442Z,1.90
2022-08-03T23:28:17.727Z,1.80
2022-08-03T23:30:45.543Z,2.05
2022-08-03T23:33:14.909Z,1.77
2022-08-03T23:36:28.210Z,2.05
2022-08-03T23:38:44.974Z,1.88
2022-08-03T23:41:13.391Z,1.60
2022-08-03T23:43:51.167Z,1.90
2022-08-03T23:46:19.784Z,2.00
2022-08-03T23:48:46.430Z,1.65
2022-08-03T23:51:49.666Z,1.90
2022-08-03T23:54:26.642Z,1.80
2022-08-03T23:57:22.172Z,1.70
2022-08-03T23:59:58.088Z,1.50
